Airfield :







YOU CAN JOIN US ON...

 
LOGIN :

Register | Disclaimer

   EN    FR    IT 

 









Legend :    VFR   Marginal VFR   IFR   Intensive IFR   Very Intensive IFR
Visi :
Ceiling :
>= 8 km
>= 3000ft
5 to 8 km
1000 to 3000 ft
1500m to 5 km
500 to 1000 ft
800 to 1500m
200 to 500 ft
< 800m
< 200 ft
Symbols :   Thunderstorms  Fog  Heavy snow  Heavy precipitations  Wind > 20 kt






- Airport Elevation : 21 ft
- IATA code : YVM


CYVM - Qikiqtarjuac

CURRENT METAR :
  • 012000Z 35012KT 10SM -SHSN FEW015 FEW033 SCT045 BKN055 00/M04 A2956 RMK SF1SC2SC2SC3 SF TR SLP011

EXPIRED METARs :
  • 011931Z 33008KT 10SM -SHSN FEW015 FEW021 SCT030 SCT055 BKN270 M01/M02 A2957 RMK SC1SC1SC2SC1CI1 SLP014
  • 011900Z 35019KT 3SM -SHSN FEW015 SCT029 BKN037 BKN043 BKN050 00/M03 A2956 RMK SC1SC3SC1SC1SC1 VIS VRBL 2-10 SLP012
  • 011800Z 02010KT 6SM -SHSN BKN016 BKN030 M01/M02 A2957 RMK SC5SC2 VIS VRBL 2-8 SLP016

TAF TAF CYVM
Valid from the 01 at 19:00 until the 02 at 07:00 UTC


011838Z 0119/0207 02010G20KT P6SM SCT015 OVC030
TEMPO 0119/0207 4SM -SN BKN015 RMK NXT FCST BY 020100Z
CZEG FIR / North America



MET'MAP, your aeronautical weather chart ! - Copyright ORBIFLY December 2007 - Disclaimer

ORBIFLY MET'MAP TEAM :

Programming & Development : Alexandra Zaïnal
Concept & original design : Baudouin d'Aumeries
Assistance for programming : Marc-Olivier Méhu
Technical & hardware support : Manuel Goepfert

Contact : metmap@orbifly.com




SOURCES & CREDITS :

   NOAA